createdAt,value
2018-03-02T00:00:42.010Z,27.20
2018-03-02T00:03:08.959Z,24.03
2018-03-02T00:05:35.805Z,29.20
2018-03-02T00:08:02.693Z,30.23
2018-03-02T00:10:29.639Z,33.40
2018-03-02T00:12:56.600Z,27.60
2018-03-02T00:15:23.548Z,27.33
2018-03-02T00:17:50.391Z,32.00
2018-03-02T00:20:17.301Z,29.03
2018-03-02T00:22:44.249Z,32.40
2018-03-02T00:25:11.089Z,28.40
2018-03-02T00:27:38.237Z,28.60
2018-03-02T00:30:05.095Z,33.47
2018-03-02T00:32:31.956Z,29.40
2018-03-02T00:34:58.828Z,26.40
2018-03-02T00:37:25.778Z,29.63
2018-03-02T00:39:52.628Z,31.73
2018-03-02T00:42:19.500Z,28.37
2018-03-02T00:44:46.344Z,28.63
2018-03-02T00:47:13.203Z,28.27
2018-03-02T00:49:40.159Z,30.17
2018-03-02T00:52:07.016Z,32.80
2018-03-02T00:54:33.868Z,34.07
2018-03-02T00:57:00.832Z,32.40
2018-03-02T00:59:27.676Z,28.10
2018-03-02T01:01:54.555Z,26.77
2018-03-02T01:04:21.507Z,29.00
2018-03-02T01:06:48.353Z,26.23
2018-03-02T01:09:15.328Z,34.40
2018-03-02T01:11:42.183Z,30.60
2018-03-02T01:14:09.015Z,33.10
2018-03-02T01:16:35.992Z,28.90
2018-03-02T01:19:02.845Z,31.70
2018-03-02T01:21:29.708Z,33.57
2018-03-02T01:23:56.664Z,30.10
2018-03-02T01:26:23.515Z,32.30
2018-03-02T01:28:50.360Z,27.33
2018-03-02T01:31:17.232Z,30.23
2018-03-02T01:33:44.112Z,29.47
2018-03-02T01:36:11.053Z,32.80
2018-03-02T01:38:37.904Z,28.73
2018-03-02T01:41:04.972Z,30.10
2018-03-02T01:43:31.924Z,32.10
2018-03-02T01:45:58.821Z,29.77
2018-03-02T01:48:25.737Z,32.23
2018-03-02T01:50:52.963Z,31.40
2018-03-02T01:53:19.868Z,31.03
2018-03-02T01:55:46.732Z,29.27
2018-03-02T01:58:13.595Z,29.97
2018-03-02T02:00:40.438Z,33.27
2018-03-02T02:03:07.396Z,26.00
2018-03-02T02:05:34.264Z,28.63
2018-03-02T02:08:01.108Z,32.00
2018-03-02T02:10:27.976Z,34.93
2018-03-02T02:12:54.951Z,30.50
2018-03-02T02:15:21.810Z,33.73
2018-03-02T02:17:48.662Z,28.60
2018-03-02T02:20:15.604Z,32.67
2018-03-02T02:22:42.450Z,36.20
2018-03-02T02:25:09.319Z,29.57
2018-03-02T02:27:36.174Z,34.83
2018-03-02T02:30:03.023Z,32.33
2018-03-02T02:32:29.880Z,29.07
2018-03-02T02:34:56.721Z,33.53
2018-03-02T02:37:23.603Z,39.33
2018-03-02T02:39:50.452Z,32.50
2018-03-02T02:42:17.320Z,34.90
2018-03-02T02:44:44.194Z,30.10
2018-03-02T02:47:11.127Z,36.67
2018-03-02T02:49:37.984Z,32.63
2018-03-02T02:52:04.841Z,29.63
2018-03-02T02:54:31.708Z,32.70
2018-03-02T02:56:58.552Z,34.83
2018-03-02T02:59:25.517Z,32.43
2018-03-02T03:01:52.365Z,31.80
2018-03-02T03:04:19.328Z,32.70
2018-03-02T03:06:46.197Z,34.33
2018-03-02T03:09:13.048Z,29.20
2018-03-02T03:11:39.998Z,33.00
2018-03-02T03:14:06.856Z,32.10
2018-03-02T03:16:33.812Z,30.63
2018-03-02T03:19:00.677Z,33.30
2018-03-02T03:21:27.528Z,34.70
2018-03-02T03:23:54.491Z,33.77
2018-03-02T03:26:21.452Z,33.67
2018-03-02T03:28:48.410Z,31.40
2018-03-02T03:31:15.257Z,30.63
2018-03-02T03:33:42.220Z,35.57
2018-03-02T03:36:09.080Z,32.13
2018-03-02T03:38:36.042Z,31.40
2018-03-02T03:41:03.039Z,35.90
2018-03-02T03:43:29.964Z,31.50
2018-03-02T03:45:56.805Z,36.73
2018-03-02T03:48:23.664Z,30.37
2018-03-02T03:50:50.632Z,33.10
2018-03-02T03:53:17.604Z,29.13
2018-03-02T03:55:45.296Z,31.90
2018-03-02T03:58:12.235Z,29.37
2018-03-02T04:00:39.092Z,33.23
2018-03-02T04:03:05.940Z,32.07
2018-03-02T04:05:33.001Z,30.17
2018-03-02T04:07:59.860Z,36.00
2018-03-02T04:10:26.704Z,33.40
2018-03-02T04:12:53.672Z,27.13
2018-03-02T04:15:20.532Z,31.77
2018-03-02T04:17:47.398Z,31.10
2018-03-02T04:20:14.464Z,31.80
2018-03-02T04:22:41.407Z,31.50
2018-03-02T04:25:08.256Z,30.77
2018-03-02T04:27:35.228Z,28.27
2018-03-02T04:30:02.084Z,35.70
2018-03-02T04:32:28.942Z,32.60
2018-03-02T04:34:55.899Z,31.80
2018-03-02T04:37:22.764Z,34.80
2018-03-02T04:39:49.723Z,33.60
2018-03-02T04:42:16.694Z,35.00
2018-03-02T04:44:43.638Z,29.33
2018-03-02T04:47:10.476Z,32.60
2018-03-02T04:49:37.360Z,34.83
2018-03-02T04:52:04.321Z,27.77
2018-03-02T04:54:31.171Z,28.47
2018-03-02T04:56:58.043Z,36.23
2018-03-02T04:59:24.903Z,34.93
2018-03-02T05:01:51.847Z,29.70
2018-03-02T05:04:18.796Z,34.87
2018-03-02T05:06:45.672Z,33.77
2018-03-02T05:09:12.531Z,32.30
2018-03-02T05:11:39.570Z,33.57
2018-03-02T05:14:06.405Z,40.63
2018-03-02T05:16:33.288Z,32.27
2018-03-02T05:19:00.142Z,32.50
2018-03-02T05:21:27.011Z,38.90
2018-03-02T05:23:53.863Z,28.30
2018-03-02T05:26:20.739Z,36.60
2018-03-02T05:28:47.588Z,34.13
2018-03-02T05:31:14.534Z,30.00
2018-03-02T05:33:41.392Z,35.03
2018-03-02T05:36:08.344Z,31.87
2018-03-02T05:38:35.187Z,34.67
2018-03-02T05:41:02.179Z,31.87
2018-03-02T05:43:29.020Z,30.67
2018-03-02T05:45:56.023Z,31.57
2018-03-02T05:48:22.862Z,34.27
2018-03-02T05:50:49.803Z,30.13
2018-03-02T05:53:16.775Z,33.00
2018-03-02T05:55:43.668Z,32.77
2018-03-02T05:58:10.510Z,31.40
2018-03-02T06:00:37.396Z,30.57
2018-03-02T06:03:04.693Z,30.33
2018-03-02T06:05:31.661Z,33.47
2018-03-02T06:07:58.512Z,30.80
2018-03-02T06:10:25.383Z,28.60
2018-03-02T06:12:52.329Z,33.57
2018-03-02T06:15:19.199Z,32.23
2018-03-02T06:17:46.064Z,30.80
2018-03-02T06:20:13.112Z,35.90
2018-03-02T06:22:40.088Z,36.40
2018-03-02T06:25:06.948Z,34.20
2018-03-02T06:27:33.877Z,34.50
2018-03-02T06:30:00.832Z,34.03
2018-03-02T06:32:27.691Z,33.77
2018-03-02T06:34:54.573Z,31.07
2018-03-02T06:37:21.512Z,31.47
2018-03-02T06:39:48.380Z,32.97
2018-03-02T06:42:15.236Z,38.50
2018-03-02T06:44:42.201Z,33.13
2018-03-02T06:47:09.151Z,30.70
2018-03-02T06:49:36.019Z,31.30
2018-03-02T06:52:02.872Z,32.77
2018-03-02T06:54:29.733Z,35.93
2018-03-02T06:56:56.689Z,32.43
2018-03-02T06:59:23.537Z,36.97
2018-03-02T07:01:50.487Z,37.13
2018-03-02T07:04:17.434Z,34.90
2018-03-02T07:06:44.308Z,34.57
2018-03-02T07:09:11.159Z,31.97
2018-03-02T07:11:38.115Z,35.63
2018-03-02T07:14:04.962Z,36.40
2018-03-02T07:16:32.248Z,30.37
2018-03-02T07:18:59.206Z,34.90
2018-03-02T07:21:26.070Z,34.80
2018-03-02T07:23:52.962Z,33.57
2018-03-02T07:26:19.849Z,35.50
2018-03-02T07:28:47.095Z,37.63
2018-03-02T07:31:13.938Z,30.70
2018-03-02T07:33:40.803Z,29.67
2018-03-02T07:36:07.666Z,34.90
2018-03-02T07:38:34.518Z,41.07
2018-03-02T07:41:01.379Z,34.40
2018-03-02T07:43:28.288Z,39.30
2018-03-02T07:45:55.160Z,34.97
2018-03-02T07:48:22.004Z,32.77
2018-03-02T07:50:49.090Z,35.93
2018-03-02T07:53:16.218Z,34.43
2018-03-02T07:55:43.062Z,33.80
2018-03-02T07:58:10.036Z,34.30
2018-03-02T08:00:36.939Z,36.10
2018-03-02T08:03:03.852Z,33.83
2018-03-02T08:05:30.740Z,38.77
2018-03-02T08:07:57.668Z,41.57
2018-03-02T08:10:24.623Z,36.53
2018-03-02T08:12:51.864Z,32.63
2018-03-02T08:15:19.109Z,37.03
2018-03-02T08:17:46.032Z,32.57
2018-03-02T08:20:12.994Z,34.30
2018-03-02T08:22:39.840Z,34.90
2018-03-02T08:25:06.791Z,34.33
2018-03-02T08:27:33.658Z,33.90
2018-03-02T08:30:00.496Z,36.97
2018-03-02T08:32:27.474Z,37.43
2018-03-02T08:34:54.328Z,35.87
2018-03-02T08:37:21.176Z,32.30
2018-03-02T08:39:48.084Z,36.27
2018-03-02T08:42:15.151Z,38.47
2018-03-02T08:44:42.000Z,35.47
2018-03-02T08:47:08.920Z,35.40
2018-03-02T08:49:35.837Z,36.63
2018-03-02T08:52:02.676Z,35.80
2018-03-02T08:54:29.568Z,38.70
2018-03-02T08:56:56.819Z,42.00
2018-03-02T08:59:23.663Z,40.90
2018-03-02T09:01:50.523Z,33.97
2018-03-02T09:04:17.404Z,39.43
2018-03-02T09:06:44.654Z,40.17
2018-03-02T09:09:11.895Z,35.00
2018-03-02T09:11:38.820Z,36.40
2018-03-02T09:14:05.886Z,38.37
2018-03-02T09:16:32.737Z,38.73
2018-03-02T09:18:59.679Z,41.30
2018-03-02T09:21:26.552Z,39.80
2018-03-02T09:23:53.405Z,37.17
2018-03-02T09:26:20.443Z,36.50
2018-03-02T09:28:47.332Z,38.33
2018-03-02T09:31:14.192Z,37.77
2018-03-02T09:33:41.057Z,38.70
2018-03-02T09:36:07.904Z,36.00
2018-03-02T09:38:34.847Z,43.23
2018-03-02T09:41:02.129Z,34.77
2018-03-02T09:43:28.976Z,38.10
2018-03-02T09:45:55.844Z,39.60
2018-03-02T09:48:22.801Z,38.63
2018-03-02T09:50:49.672Z,39.90
2018-03-02T09:53:16.520Z,44.60
2018-03-02T09:55:43.473Z,35.27
2018-03-02T09:58:10.423Z,34.30
2018-03-02T10:00:37.330Z,35.07
2018-03-02T10:03:04.203Z,35.63
2018-03-02T10:05:31.070Z,34.53
2018-03-02T10:07:57.996Z,36.33
2018-03-02T10:10:24.859Z,36.83
2018-03-02T10:12:51.776Z,33.13
2018-03-02T10:15:18.732Z,40.13
2018-03-02T10:17:45.577Z,39.47
2018-03-02T10:20:12.419Z,35.53
2018-03-02T10:22:39.693Z,38.50
2018-03-02T10:25:07.006Z,35.10
2018-03-02T10:27:33.935Z,43.03
2018-03-02T10:30:00.904Z,44.03
2018-03-02T10:32:27.854Z,46.93
2018-03-02T10:34:55.129Z,38.37
2018-03-02T10:37:22.088Z,46.43
2018-03-02T10:39:48.952Z,37.60
2018-03-02T10:42:15.917Z,34.33
2018-03-02T10:44:42.789Z,37.80
2018-03-02T10:47:09.653Z,34.90
2018-03-02T10:49:36.597Z,39.93
2018-03-02T10:52:03.465Z,36.47
2018-03-02T10:54:30.321Z,40.43
2018-03-02T10:56:57.239Z,36.07
2018-03-02T10:59:24.104Z,35.50
2018-03-02T11:01:50.983Z,41.20
2018-03-02T11:04:17.818Z,39.57
2018-03-02T11:06:44.683Z,34.40
2018-03-02T11:09:11.632Z,38.33
2018-03-02T11:11:38.532Z,37.23
2018-03-02T11:14:05.446Z,33.90
2018-03-02T11:16:32.304Z,38.40
2018-03-02T11:18:59.271Z,40.80
2018-03-02T11:21:26.123Z,40.70
2018-03-02T11:23:53.116Z,36.00
2018-03-02T11:26:20.145Z,40.30
2018-03-02T11:28:47.002Z,39.53
2018-03-02T11:31:13.887Z,38.70
2018-03-02T11:33:40.815Z,42.70
2018-03-02T11:36:08.041Z,38.13
2018-03-02T11:38:34.999Z,39.33
2018-03-02T11:41:01.886Z,39.97
2018-03-02T11:43:28.723Z,36.60
2018-03-02T11:45:56.082Z,39.60
2018-03-02T11:48:22.941Z,50.10
2018-03-02T11:50:50.042Z,40.30
2018-03-02T11:53:17.008Z,38.00
2018-03-02T11:55:43.865Z,37.77
2018-03-02T11:58:10.705Z,37.50
2018-03-02T12:00:37.564Z,42.33
2018-03-02T12:03:04.440Z,39.30
2018-03-02T12:05:31.297Z,38.97
2018-03-02T12:07:58.244Z,44.37
2018-03-02T12:10:25.113Z,36.17
2018-03-02T12:12:51.954Z,38.30
2018-03-02T12:15:18.800Z,42.57
2018-03-02T12:17:45.686Z,38.03
2018-03-02T12:20:12.522Z,35.60
2018-03-02T12:22:39.434Z,42.80
2018-03-02T12:25:06.628Z,45.43
2018-03-02T12:27:33.918Z,38.00
2018-03-02T12:30:00.787Z,36.50
2018-03-02T12:32:27.664Z,36.70
2018-03-02T12:34:54.588Z,42.83
2018-03-02T12:37:21.446Z,43.83
2018-03-02T12:39:48.406Z,45.13
2018-03-02T12:42:15.275Z,38.90
2018-03-02T12:44:42.236Z,34.07
2018-03-02T12:47:09.101Z,34.40
2018-03-02T12:49:35.950Z,39.60
2018-03-02T12:52:02.796Z,41.13
2018-03-02T12:54:29.715Z,36.47
2018-03-02T12:56:56.506Z,41.20
2018-03-02T12:59:23.348Z,39.60
2018-03-02T13:01:50.320Z,37.73
2018-03-02T13:04:17.199Z,40.93
2018-03-02T13:06:44.052Z,36.13
2018-03-02T13:09:10.985Z,35.77
2018-03-02T13:11:37.889Z,36.23
2018-03-02T13:14:04.853Z,38.00
2018-03-02T13:16:31.696Z,38.60
2018-03-02T13:18:58.661Z,34.80
2018-03-02T13:21:25.485Z,39.13
2018-03-02T13:23:52.344Z,40.37
2018-03-02T13:26:31.199Z,38.67
2018-03-02T13:28:58.057Z,42.60
2018-03-02T13:31:24.904Z,40.93
2018-03-02T13:34:03.500Z,36.80
2018-03-02T13:36:30.398Z,39.00
2018-03-02T13:38:57.263Z,38.10
2018-03-02T13:41:35.888Z,35.90
2018-03-02T13:44:02.752Z,37.23
2018-03-02T13:46:29.596Z,40.47
2018-03-02T13:49:08.421Z,36.33
2018-03-02T13:51:35.281Z,38.63
2018-03-02T13:54:02.130Z,35.80
2018-03-02T13:56:40.888Z,39.77
2018-03-02T13:59:07.726Z,37.17
2018-03-02T14:01:34.572Z,36.83
2018-03-02T14:04:13.296Z,40.00
2018-03-02T14:06:40.564Z,40.80
2018-03-02T14:09:07.809Z,42.20
2018-03-02T14:11:34.663Z,38.07
2018-03-02T14:14:01.583Z,42.37
2018-03-02T14:16:28.423Z,39.17
2018-03-02T14:18:55.291Z,38.53
2018-03-02T14:21:22.241Z,40.03
2018-03-02T14:23:49.496Z,38.47
2018-03-02T14:26:16.340Z,38.63
2018-03-02T14:28:43.585Z,39.17
2018-03-02T14:31:10.449Z,38.23
2018-03-02T14:33:37.692Z,38.30
2018-03-02T14:36:04.532Z,39.33
2018-03-02T14:38:31.417Z,37.00
2018-03-02T14:40:58.277Z,34.37
2018-03-02T14:43:25.189Z,44.77
2018-03-02T14:45:52.062Z,42.00
2018-03-02T14:48:19.009Z,41.87
2018-03-02T14:50:45.883Z,40.10
2018-03-02T14:53:12.736Z,39.17
2018-03-02T14:55:39.584Z,42.20
2018-03-02T14:58:06.518Z,39.97
2018-03-02T15:00:33.392Z,39.03
2018-03-02T15:03:00.264Z,41.97
2018-03-02T15:05:27.319Z,42.50
2018-03-02T15:07:54.159Z,38.30
2018-03-02T15:10:21.007Z,37.63
2018-03-02T15:12:48.281Z,38.77
2018-03-02T15:15:15.196Z,39.93
2018-03-02T15:17:42.042Z,36.73
2018-03-02T15:20:08.905Z,39.10
2018-03-02T15:22:35.828Z,39.97
2018-03-02T15:25:02.692Z,38.33
2018-03-02T15:27:29.574Z,43.60
2018-03-02T15:29:56.421Z,36.20
2018-03-02T15:32:23.264Z,40.93
2018-03-02T15:34:50.133Z,40.33
2018-03-02T15:37:17.098Z,36.90
2018-03-02T15:39:44.108Z,42.90
2018-03-02T15:42:11.378Z,38.57
2018-03-02T15:44:38.352Z,35.63
2018-03-02T15:47:05.577Z,38.97
2018-03-02T15:49:32.444Z,37.40
2018-03-02T15:51:59.370Z,39.53
2018-03-02T15:54:26.195Z,40.33
2018-03-02T15:56:53.052Z,41.43
2018-03-02T15:59:19.924Z,37.60
2018-03-02T16:01:46.781Z,39.67
2018-03-02T16:04:13.844Z,35.87
2018-03-02T16:06:40.712Z,40.97
2018-03-02T16:09:07.780Z,36.00
2018-03-02T16:11:34.708Z,35.87
2018-03-02T16:14:01.590Z,38.80
2018-03-02T16:16:28.517Z,34.40
2018-03-02T16:18:55.384Z,35.30
2018-03-02T16:21:22.336Z,36.97
2018-03-02T16:23:49.220Z,38.80
2018-03-02T16:26:16.113Z,34.77
2018-03-02T16:28:43.413Z,36.43
2018-03-02T16:31:10.303Z,37.07
2018-03-02T16:33:37.124Z,37.87
2018-03-02T16:36:04.445Z,35.40
2018-03-02T16:38:31.295Z,38.30
2018-03-02T16:40:58.229Z,36.93
2018-03-02T16:43:25.180Z,36.30
2018-03-02T16:45:52.094Z,35.30
2018-03-02T16:48:19.132Z,39.50
2018-03-02T16:50:46.053Z,37.43
2018-03-02T16:53:12.896Z,34.80
2018-03-02T16:55:40.628Z,31.30
2018-03-02T16:58:07.576Z,37.57
2018-03-02T17:00:34.420Z,35.67
2018-03-02T17:03:01.278Z,36.10
2018-03-02T17:05:28.151Z,33.90
2018-03-02T17:07:55.073Z,34.67
2018-03-02T17:10:21.932Z,37.87
2018-03-02T17:12:48.825Z,43.23
2018-03-02T17:15:15.785Z,36.80
2018-03-02T17:17:42.629Z,40.57
2018-03-02T17:20:09.504Z,37.27
2018-03-02T17:22:36.424Z,38.27
2018-03-02T17:25:03.270Z,35.40
2018-03-02T17:27:30.148Z,34.33
2018-03-02T17:29:56.986Z,35.90
2018-03-02T17:32:23.852Z,42.70
2018-03-02T17:34:50.716Z,34.40
2018-03-02T17:37:17.564Z,37.20
2018-03-02T17:39:44.535Z,40.70
2018-03-02T17:42:11.484Z,39.13
2018-03-02T17:44:38.342Z,35.00
2018-03-02T17:47:05.224Z,37.10
2018-03-02T17:49:32.052Z,39.17
2018-03-02T17:51:58.909Z,39.07
2018-03-02T17:54:25.811Z,40.03
2018-03-02T17:56:52.737Z,34.87
2018-03-02T17:59:19.584Z,38.53
2018-03-02T18:01:46.456Z,40.27
2018-03-02T18:04:13.408Z,39.87
2018-03-02T18:06:40.264Z,38.73
2018-03-02T18:09:07.131Z,41.40
2018-03-02T18:11:33.969Z,39.87
2018-03-02T18:14:00.816Z,40.10
2018-03-02T18:16:27.779Z,42.47
2018-03-02T18:18:54.755Z,36.93
2018-03-02T18:21:21.596Z,39.10
2018-03-02T18:23:48.464Z,38.57
2018-03-02T18:26:15.411Z,39.93
2018-03-02T18:28:42.272Z,41.40
2018-03-02T18:31:09.132Z,39.10
2018-03-02T18:33:35.999Z,42.20
2018-03-02T18:36:02.936Z,40.70
2018-03-02T18:38:30.165Z,43.17
2018-03-02T18:40:57.420Z,37.20
2018-03-02T18:43:24.291Z,39.83
2018-03-02T18:45:51.596Z,37.80
2018-03-02T18:48:18.464Z,39.57
2018-03-02T18:50:45.440Z,41.30
2018-03-02T18:53:12.296Z,39.30
2018-03-02T18:55:39.236Z,43.43
2018-03-02T18:58:06.081Z,38.40
2018-03-02T19:00:32.947Z,46.73
2018-03-02T19:02:59.872Z,43.40
2018-03-02T19:05:27.143Z,41.03
2018-03-02T19:07:54.448Z,38.43
2018-03-02T19:10:21.297Z,38.37
2018-03-02T19:12:48.175Z,40.73
2018-03-02T19:15:15.126Z,38.47
2018-03-02T19:17:42.064Z,41.73
2018-03-02T19:20:08.908Z,41.77
2018-03-02T19:22:36.167Z,41.60
2018-03-02T19:25:03.475Z,44.57
2018-03-02T19:27:30.328Z,37.90
2018-03-02T19:29:57.267Z,40.83
2018-03-02T19:32:24.108Z,39.27
2018-03-02T19:34:51.603Z,42.23
2018-03-02T19:37:18.827Z,46.60
2018-03-02T19:39:45.731Z,41.53
2018-03-02T19:42:12.575Z,40.37
2018-03-02T19:44:39.417Z,44.63
2018-03-02T19:47:06.848Z,44.70
2018-03-02T19:49:33.692Z,38.27
2018-03-02T19:52:00.544Z,46.80
2018-03-02T19:54:27.384Z,45.67
2018-03-02T19:56:54.445Z,37.00
2018-03-02T19:59:21.312Z,41.10
2018-03-02T20:01:48.172Z,45.73
2018-03-02T20:04:15.053Z,50.00
2018-03-02T20:06:41.973Z,43.90
2018-03-02T20:09:08.812Z,51.47
2018-03-02T20:11:35.678Z,55.57
2018-03-02T20:14:02.544Z,51.60
2018-03-02T20:16:29.497Z,52.47
2018-03-02T20:18:56.468Z,59.70
2018-03-02T20:21:23.309Z,61.27
2018-03-02T20:23:50.177Z,57.40
2018-03-02T20:26:17.040Z,61.87
2018-03-02T20:28:43.904Z,60.90
2018-03-02T20:31:10.759Z,66.63
2018-03-02T20:33:37.600Z,65.20
2018-03-02T20:36:04.571Z,63.20
2018-03-02T20:38:31.514Z,67.03
2018-03-02T20:40:58.376Z,62.20
2018-03-02T20:43:25.236Z,69.53
2018-03-02T20:45:52.096Z,70.33
2018-03-02T20:48:18.949Z,71.23
2018-03-02T20:50:45.932Z,64.83
2018-03-02T20:53:12.785Z,66.67
2018-03-02T20:55:39.724Z,65.20
2018-03-02T20:58:06.693Z,63.00
2018-03-02T21:00:33.636Z,59.80
2018-03-02T21:03:00.512Z,63.63
2018-03-02T21:05:27.464Z,69.87
2018-03-02T21:07:54.308Z,70.07
2018-03-02T21:10:21.169Z,62.70
2018-03-02T21:12:48.043Z,66.13
2018-03-02T21:15:15.002Z,62.47
2018-03-02T21:17:41.841Z,75.37
2018-03-02T21:20:08.686Z,62.13
2018-03-02T21:22:35.652Z,62.37
2018-03-02T21:25:02.574Z,65.50
2018-03-02T21:27:29.388Z,61.97
2018-03-02T21:29:56.231Z,68.83
2018-03-02T21:32:23.093Z,68.80
2018-03-02T21:34:50.052Z,72.87
2018-03-02T21:37:16.924Z,62.90
2018-03-02T21:39:43.779Z,62.77
2018-03-02T21:42:10.712Z,71.00
2018-03-02T21:44:37.632Z,66.13
2018-03-02T21:47:04.944Z,70.30
2018-03-02T21:49:31.903Z,69.60
2018-03-02T21:51:58.756Z,66.37
2018-03-02T21:54:25.713Z,68.37
2018-03-02T21:56:52.680Z,69.70
2018-03-02T21:59:19.532Z,72.17
2018-03-02T22:01:46.381Z,73.03
2018-03-02T22:04:13.345Z,71.00
2018-03-02T22:06:40.249Z,74.77
2018-03-02T22:09:07.167Z,74.20
2018-03-02T22:11:34.005Z,71.77
2018-03-02T22:14:00.980Z,68.20
2018-03-02T22:16:27.824Z,69.93
2018-03-02T22:18:54.663Z,71.53
2018-03-02T22:21:21.924Z,75.73
2018-03-02T22:23:49.236Z,77.90
2018-03-02T22:26:16.112Z,73.23
2018-03-02T22:28:42.984Z,70.03
2018-03-02T22:31:09.892Z,65.80
2018-03-02T22:33:36.750Z,73.03
2018-03-02T22:36:03.615Z,69.80
2018-03-02T22:38:30.588Z,73.87
2018-03-02T22:40:57.422Z,65.50
2018-03-02T22:43:24.385Z,72.57
2018-03-02T22:45:51.228Z,77.00
2018-03-02T22:48:18.207Z,79.27
2018-03-02T22:50:45.068Z,79.57
2018-03-02T22:53:11.909Z,71.37
2018-03-02T22:55:38.795Z,73.63
2018-03-02T22:58:05.744Z,77.03
2018-03-02T23:00:32.636Z,77.30
2018-03-02T23:02:59.454Z,82.67
2018-03-02T23:05:26.293Z,79.20
2018-03-02T23:07:53.151Z,74.03
2018-03-02T23:10:20.116Z,90.83
2018-03-02T23:12:46.995Z,71.90
2018-03-02T23:15:13.944Z,75.57
2018-03-02T23:17:40.888Z,74.83
2018-03-02T23:20:07.751Z,76.80
2018-03-02T23:22:34.597Z,85.10
2018-03-02T23:25:01.557Z,75.37
2018-03-02T23:27:28.421Z,77.77
2018-03-02T23:29:55.266Z,79.63
2018-03-02T23:32:22.140Z,84.43
2018-03-02T23:34:48.984Z,80.97
2018-03-02T23:37:15.848Z,86.20
2018-03-02T23:39:42.812Z,81.50
2018-03-02T23:42:09.663Z,86.37
2018-03-02T23:44:36.516Z,88.23
2018-03-02T23:47:03.380Z,83.27
2018-03-02T23:49:30.334Z,82.53
2018-03-02T23:51:57.176Z,81.57
2018-03-02T23:54:24.059Z,78.30
2018-03-02T23:56:50.949Z,72.80
2018-03-02T23:59:17.806Z,75.30
